New Ross, Canada
Current Conditions -  °F | °C
As of 10:00 AM on Wednesday 22 Oct 2014 (Local Time) from CYZX Reporting Station
Rain Showers Rain Showers  
Wind Chill: 50°   Ceiling: 3800
Heat Index: 50°   Visibility: 15mi
Dew Point: 43°   Wind: 17mph
Humidity: 76%   Direction: 80°E
Pressure: 30.28"   Gusts: 29mph
Location:  44.73°N, 64.45°W
Report Text: CYZX 221300Z 08015G25KT 15SM -SHRA BKN038 BKN072 10/06 A3028 RMK SC5AC2 WNDY HILL 10017G26KT PCPN VRY LGT SLP254
Loading
Personal Weather Stations






























Interactive Weather Map
Tropical Storm Tracking
New forecast layout! Learn more

10-Day Weather Forecast

Advertisements
Track Severe Weather on mobile